Time;durP1;ratioP1;P1;durP2;ratioP2;P2;SDS_P1;SDS_P2;PMS_P1;PMS_P2;Temp;Humidity;BMP_temperature;BMP_pressure;BME280_temperature;BME280_humidity;BME280_pressure;Samples;Min_cycle;Max_cycle;Signal;HPM_P1;HPM_P2
2022/10/11 00:01:30;;;;;;;5.20;3.17;;;8.80;55.60;;;;;;4986774;28;20467;-75
2022/10/11 00:03:56;;;;;;;6.20;2.90;;;8.90;55.30;;;;;;4981376;28;20034;-75
2022/10/11 00:06:22;;;;;;;6.82;2.92;;;8.80;55.10;;;;;;4986750;28;20100;-73
2022/10/11 00:08:48;;;;;;;7.13;2.85;;;8.80;55.20;;;;;;5003543;28;20033;-75
2022/10/11 00:11:14;;;;;;;7.30;3.05;;;8.70;55.10;;;;;;4988081;28;20058;-74
2022/10/11 00:13:40;;;;;;;6.40;3.00;;;8.70;55.70;;;;;;4986600;28;20030;-74
2022/10/11 00:16:10;;;;;;;4.90;3.10;;;8.70;55.30;;;;;;4986972;28;20069;-75
2022/10/11 00:18:37;;;;;;;7.13;3.20;;;8.70;55.40;;;;;;4986563;28;20446;-74
2022/10/11 00:21:05;;;;;;;6.70;3.05;;;8.60;55.20;;;;;;4984057;28;20050;-74
2022/10/11 00:23:32;;;;;;;7.65;2.88;;;8.60;55.20;;;;;;4987688;28;20437;-72
2022/10/11 00:26:00;;;;;;;8.32;3.50;;;8.60;55.30;;;;;;4991667;28;20061;-74
2022/10/11 00:28:27;;;;;;;4.82;2.55;;;8.60;55.40;;;;;;4987054;28;20041;-75
2022/10/11 00:30:53;;;;;;;4.72;2.60;;;8.50;55.20;;;;;;4985377;28;20065;-75
2022/10/11 00:33:19;;;;;;;8.05;3.28;;;8.60;55.50;;;;;;4988305;28;20026;-75
2022/10/11 00:35:47;;;;;;;5.90;3.00;;;8.50;55.40;;;;;;4984728;28;20026;-75
2022/10/11 00:38:14;;;;;;;4.80;2.55;;;8.50;55.40;;;;;;4988443;28;20030;-75
2022/10/11 00:40:41;;;;;;;10.07;3.05;;;8.40;55.20;;;;;;4984716;28;20406;-74
2022/10/11 00:43:19;;;;;;;5.95;3.88;;;8.50;55.40;;;;;;4988079;28;20108;-75
2022/10/11 00:45:51;;;;;;;5.63;2.60;;;8.50;55.50;;;;;;4986476;28;20065;-74
2022/10/11 00:48:40;;;;;;;5.50;2.90;;;8.40;55.40;;;;;;4987129;28;20052;-74
2022/10/11 00:51:33;;;;;;;13.52;3.03;;;8.40;55.50;;;;;;4990717;28;20064;-75
2022/10/11 00:54:02;;;;;;;6.00;2.75;;;8.30;55.20;;;;;;4983182;28;20027;-74
2022/10/11 00:56:36;;;;;;;5.75;3.05;;;8.40;55.40;;;;;;4954028;28;20402;-75
2022/10/11 00:59:09;;;;;;;7.18;3.20;;;8.20;55.20;;;;;;4989968;28;20027;-75
2022/10/11 01:01:35;;;;;;;9.20;2.90;;;8.20;55.20;;;;;;4986612;28;20490;-75
2022/10/11 01:04:01;;;;;;;5.55;3.15;;;8.20;55.30;;;;;;4990959;28;20030;-75
2022/10/11 01:06:28;;;;;;;5.75;3.20;;;8.20;55.30;;;;;;4985941;28;20233;-73
2022/10/11 01:08:55;;;;;;;4.28;2.30;;;8.10;55.20;;;;;;4988031;28;20037;-74
2022/10/11 01:11:24;;;;;;;6.53;2.80;;;8.20;55.50;;;;;;4986686;28;20026;-74
2022/10/11 01:14:17;;;;;;;4.85;2.75;;;8.10;55.40;;;;;;4988252;28;20027;-74
2022/10/11 01:17:09;;;;;;;5.72;2.38;;;8.10;55.50;;;;;;4986623;28;20038;-75
2022/10/11 01:19:47;;;;;;;8.68;3.17;;;8.10;55.50;;;;;;4986226;28;20116;-75
2022/10/11 01:22:54;;;;;;;5.65;2.10;;;8.00;55.30;;;;;;4982103;28;20092;-77
2022/10/11 01:25:26;;;;;;;6.10;2.85;;;8.00;55.40;;;;;;4985638;28;21017;-75
2022/10/11 01:27:59;;;;;;;6.15;2.45;;;8.00;55.40;;;;;;4982104;28;20413;-74
2022/10/11 01:30:28;;;;;;;6.60;2.58;;;8.00;55.40;;;;;;4988948;28;20048;-74
2022/10/11 01:33:04;;;;;;;7.20;3.22;;;8.00;55.50;;;;;;4987225;28;20030;-75
2022/10/11 01:35:44;;;;;;;5.05;2.55;;;8.00;55.50;;;;;;4985313;28;20026;-73
2022/10/11 01:38:28;;;;;;;5.85;2.92;;;7.90;55.30;;;;;;4986100;28;20161;-76
2022/10/11 01:41:01;;;;;;;5.63;2.50;;;7.90;55.90;;;;;;4986110;28;20038;-75
2022/10/11 01:43:28;;;;;;;5.45;2.72;;;7.90;55.30;;;;;;4987670;28;20034;-76
2022/10/11 01:45:57;;;;;;;7.05;3.58;;;7.90;55.30;;;;;;4985717;28;20431;-75
2022/10/11 01:48:22;;;;;;;7.97;2.80;;;7.90;55.40;;;;;;4970617;28;20050;-73
2022/10/11 01:50:54;;;;;;;6.15;2.92;;;7.90;55.40;;;;;;4981340;28;20103;-75
2022/10/11 01:53:47;;;;;;;4.93;2.38;;;7.80;55.30;;;;;;4988086;28;20035;-75
2022/10/11 01:56:37;;;;;;;5.43;2.28;;;7.80;55.40;;;;;;4990796;28;20022;-74
2022/10/11 01:59:06;;;;;;;6.63;2.90;;;7.80;55.40;;;;;;4989532;28;20031;-75
2022/10/11 02:01:48;;;;;;;5.68;2.60;;;7.80;55.40;;;;;;4987811;28;20043;-75
2022/10/11 02:04:36;;;;;;;4.80;2.67;;;7.70;55.30;;;;;;4989901;28;20022;-74
2022/10/11 02:07:21;;;;;;;7.53;3.53;;;7.70;55.40;;;;;;4982116;28;20038;-75
2022/10/11 02:09:53;;;;;;;5.07;2.40;;;7.70;55.40;;;;;;4987767;28;20034;-75
2022/10/11 02:12:32;;;;;;;4.43;2.40;;;7.60;55.30;;;;;;4988881;28;20023;-76
2022/10/11 02:15:02;;;;;;;3.60;2.75;;;7.60;55.30;;;;;;4990981;28;20038;-76
2022/10/11 02:17:35;;;;;;;5.30;2.75;;;7.60;55.40;;;;;;4990039;28;20026;-75
2022/10/11 02:20:06;;;;;;;;;;;7.60;55.40;;;;;;4986691;28;20428;-76
2022/10/11 02:22:37;;;;;;;7.72;2.78;;;7.60;55.40;;;;;;4973148;28;19973;-76
2022/10/11 02:25:09;;;;;;;4.53;2.25;;;7.60;55.30;;;;;;4989986;28;20045;-75
2022/10/11 02:27:39;;;;;;;6.03;2.67;;;7.50;55.20;;;;;;4991150;28;20026;-75
2022/10/11 02:30:07;;;;;;;6.70;2.70;;;7.60;56.00;;;;;;4989560;28;20049;-76
2022/10/11 02:32:40;;;;;;;6.20;2.92;;;7.60;55.40;;;;;;4979542;28;20029;-77
2022/10/11 02:35:09;;;;;;;5.07;2.28;;;7.50;55.30;;;;;;4990013;28;20034;-76
2022/10/11 02:37:42;;;;;;;7.20;3.38;;;7.60;55.50;;;;;;4988313;28;20065;-76
2022/10/11 02:40:32;;;;;;;7.72;2.92;;;7.60;55.60;;;;;;5005483;28;20508;-75
2022/10/11 02:43:06;;;;;;;4.15;2.25;;;7.50;55.40;;;;;;4990129;28;20030;-76
2022/10/11 02:45:40;;;;;;;4.95;2.83;;;7.50;55.40;;;;;;4990709;28;20030;-76
2022/10/11 02:48:08;;;;;;;5.38;2.50;;;7.50;55.40;;;;;;4988926;28;20058;-74
2022/10/11 02:50:37;;;;;;;5.53;2.55;;;7.50;55.50;;;;;;4983981;28;20599;-75
2022/10/11 02:53:03;;;;;;;4.22;2.45;;;7.50;55.50;;;;;;4990148;28;20033;-75
2022/10/11 02:55:31;;;;;;;4.50;2.40;;;7.50;55.60;;;;;;4986878;28;20038;-75
2022/10/11 02:57:57;;;;;;;8.50;3.20;;;7.40;55.50;;;;;;4989124;28;20029;-74
2022/10/11 03:00:23;;;;;;;5.28;2.05;;;7.40;55.50;;;;;;4985835;28;20042;-76
2022/10/11 03:02:48;;;;;;;4.93;2.78;;;7.40;55.50;;;;;;4987935;28;20033;-77
2022/10/11 03:05:15;;;;;;;6.70;2.58;;;7.40;55.60;;;;;;5001887;28;20076;-74
2022/10/11 03:07:40;;;;;;;3.83;2.13;;;7.40;55.70;;;;;;4988095;28;20030;-74
2022/10/11 03:10:07;;;;;;;5.30;3.20;;;7.40;55.70;;;;;;4989956;28;20027;-74
2022/10/11 03:12:33;;;;;;;4.90;2.55;;;7.40;55.70;;;;;;4986920;28;20510;-75
2022/10/11 03:14:59;;;;;;;6.47;2.53;;;7.40;55.80;;;;;;4992406;28;20068;-74
2022/10/11 03:17:26;;;;;;;8.02;2.80;;;7.40;55.80;;;;;;4980789;28;20057;-76
2022/10/11 03:19:54;;;;;;;5.45;2.50;;;7.30;55.70;;;;;;4990802;28;20680;-75
2022/10/11 03:22:21;;;;;;;2.97;1.98;;;7.30;55.70;;;;;;4982882;28;20555;-75
2022/10/11 03:24:46;;;;;;;4.13;2.10;;;7.30;55.70;;;;;;4989117;28;20417;-75
2022/10/11 03:27:13;;;;;;;5.28;2.58;;;7.30;55.70;;;;;;4981430;28;20030;-76
2022/10/11 03:29:40;;;;;;;5.65;2.17;;;7.30;55.70;;;;;;5003170;28;20026;-73
2022/10/11 03:32:06;;;;;;;4.55;2.33;;;7.30;55.70;;;;;;4982912;28;20034;-76
2022/10/11 03:34:32;;;;;;;6.95;3.15;;;7.30;55.70;;;;;;4993201;28;20097;-74
2022/10/11 03:36:58;;;;;;;5.30;2.65;;;7.20;55.60;;;;;;4998616;28;20030;-75
2022/10/11 03:39:24;;;;;;;7.80;2.90;;;7.30;55.70;;;;;;4994260;28;20030;-75
2022/10/11 03:41:51;;;;;;;4.63;2.55;;;7.20;55.60;;;;;;4989506;28;20046;-75
2022/10/11 03:44:17;;;;;;;7.50;3.10;;;7.10;55.40;;;;;;5007026;28;20065;-75
2022/10/11 03:46:42;;;;;;;4.80;2.33;;;7.10;55.50;;;;;;4990315;28;20201;-75
2022/10/11 03:49:08;;;;;;;6.18;2.67;;;7.10;55.50;;;;;;4992534;28;20072;-73
2022/10/11 03:51:35;;;;;;;4.65;2.35;;;7.10;55.50;;;;;;4985759;28;20481;-74
2022/10/11 03:54:01;;;;;;;4.82;1.92;;;7.10;55.50;;;;;;4992915;28;20053;-74
2022/10/11 03:56:27;;;;;;;7.40;2.50;;;7.10;55.60;;;;;;4980481;28;20046;-75
2022/10/11 03:58:53;;;;;;;4.28;2.47;;;7.00;55.50;;;;;;4991820;28;20065;-74
2022/10/11 04:01:19;;;;;;;6.57;2.47;;;7.00;55.50;;;;;;4992147;28;20090;-75
2022/10/11 04:03:44;;;;;;;7.45;2.22;;;6.90;55.40;;;;;;4981902;28;20051;-74
2022/10/11 04:06:10;;;;;;;7.78;2.58;;;6.90;55.40;;;;;;4992974;28;20759;-75
2022/10/11 04:08:37;;;;;;;8.40;2.65;;;6.90;55.50;;;;;;4988883;28;20038;-75
2022/10/11 04:11:03;;;;;;;7.03;2.63;;;6.90;55.50;;;;;;4992175;28;20407;-75
2022/10/11 04:13:35;;;;;;;5.05;2.53;;;6.80;55.40;;;;;;4989276;28;20035;-75
2022/10/11 04:16:01;;;;;;;5.03;2.53;;;6.80;55.40;;;;;;4994039;28;20130;-74
2022/10/11 04:18:28;;;;;;;4.90;2.38;;;6.80;55.40;;;;;;4984305;28;20022;-75
2022/10/11 04:20:54;;;;;;;7.50;2.67;;;6.80;55.40;;;;;;4992017;28;20092;-75
2022/10/11 04:23:20;;;;;;;5.78;2.17;;;6.70;55.20;;;;;;4993160;28;20125;-74
2022/10/11 04:25:47;;;;;;;3.97;2.35;;;6.70;55.30;;;;;;4993342;28;20045;-74
2022/10/11 04:28:13;;;;;;;5.63;2.10;;;6.70;55.30;;;;;;4989180;28;20413;-75
2022/10/11 04:30:39;;;;;;;4.90;2.33;;;6.70;55.30;;;;;;4992044;28;20044;-75
2022/10/11 04:33:05;;;;;;;3.70;2.22;;;6.70;55.40;;;;;;4993663;28;20226;-73
2022/10/11 04:35:31;;;;;;;5.75;2.00;;;6.70;55.40;;;;;;4991349;28;20489;-75
2022/10/11 04:37:56;;;;;;;8.75;2.22;;;6.70;55.40;;;;;;5000086;28;20088;-75
2022/10/11 04:40:22;;;;;;;4.47;2.00;;;6.60;55.20;;;;;;4972458;28;20061;-73
2022/10/11 04:42:50;;;;;;;7.40;2.83;;;6.60;55.30;;;;;;4986928;28;20031;-75
2022/10/11 04:45:22;;;;;;;5.78;2.13;;;6.60;55.30;;;;;;4986560;28;20281;-75
2022/10/11 04:47:48;;;;;;;8.77;2.20;;;6.60;55.30;;;;;;4984256;28;20054;-75
2022/10/11 04:50:14;;;;;;;8.10;2.25;;;6.50;55.10;;;;;;4985955;28;20169;-75
2022/10/11 04:52:40;;;;;;;5.55;2.40;;;6.50;55.10;;;;;;4985869;28;20450;-76
2022/10/11 04:55:07;;;;;;;4.28;2.40;;;6.50;55.10;;;;;;4987558;28;20045;-75
2022/10/11 04:57:32;;;;;;;8.02;3.10;;;6.50;55.20;;;;;;4984041;28;20159;-75
2022/10/11 04:59:59;;;;;;;7.30;2.30;;;6.50;55.30;;;;;;4975002;28;20538;-76
2022/10/11 05:02:25;;;;;;;8.93;2.40;;;6.40;55.10;;;;;;4959289;28;20054;-74
2022/10/11 05:04:50;;;;;;;6.65;2.47;;;6.40;55.20;;;;;;4985628;28;20175;-74
2022/10/11 05:07:16;;;;;;;8.38;2.53;;;6.40;55.20;;;;;;4989918;28;20181;-75
2022/10/11 05:09:44;;;;;;;6.30;2.20;;;6.40;55.30;;;;;;4988438;28;20413;-76
2022/10/11 05:12:15;;;;;;;3.85;2.10;;;6.40;55.40;;;;;;4987499;28;20045;-75
2022/10/11 05:14:42;;;;;;;6.07;2.17;;;6.30;55.20;;;;;;4981333;28;20038;-75
2022/10/11 05:17:08;;;;;;;5.70;1.95;;;6.30;55.80;;;;;;4993549;28;20030;-76
2022/10/11 05:19:37;;;;;;;4.70;1.80;;;6.30;55.30;;;;;;4984048;28;20034;-75
2022/10/11 05:22:03;;;;;;;6.63;2.40;;;6.30;55.30;;;;;;4985806;28;20038;-76
2022/10/11 05:24:29;;;;;;;5.28;2.45;;;6.30;55.40;;;;;;4987017;28;20447;-73
2022/10/11 05:26:55;;;;;;;6.45;2.85;;;6.20;55.20;;;;;;4986067;28;20157;-73
2022/10/11 05:29:21;;;;;;;4.60;2.00;;;6.20;55.20;;;;;;4992436;28;20070;-74
2022/10/11 05:31:47;;;;;;;7.05;2.83;;;6.20;55.20;;;;;;4994993;28;20022;-75
2022/10/11 05:34:13;;;;;;;5.60;2.33;;;6.20;55.30;;;;;;4997523;28;20046;-74
2022/10/11 05:36:40;;;;;;;5.07;2.10;;;6.20;55.30;;;;;;4989237;28;20042;-75
2022/10/11 05:39:06;;;;;;;5.07;2.05;;;6.20;55.30;;;;;;4992116;28;20041;-74
2022/10/11 05:41:32;;;;;;;5.15;2.13;;;6.20;55.40;;;;;;4991216;28;20042;-75
2022/10/11 05:43:59;;;;;;;7.30;2.42;;;6.10;55.20;;;;;;4996039;28;20042;-75
2022/10/11 05:46:25;;;;;;;4.68;2.45;;;6.20;55.40;;;;;;5003569;28;20026;-75
2022/10/11 05:48:54;;;;;;;4.78;2.72;;;6.10;55.30;;;;;;4996659;28;20052;-76
2022/10/11 05:51:20;;;;;;;7.70;2.10;;;6.10;55.30;;;;;;4980210;28;20578;-75
2022/10/11 05:53:46;;;;;;;7.03;2.35;;;6.10;55.30;;;;;;4970042;28;20038;-77
2022/10/11 05:56:20;;;;;;;7.30;2.90;;;6.10;55.40;;;;;;4984562;28;20084;-76
2022/10/11 05:58:48;;;;;;;7.80;2.92;;;6.00;55.30;;;;;;4982551;28;20285;-75
2022/10/11 06:01:19;;;;;;;6.68;2.30;;;6.00;55.30;;;;;;4984194;28;20040;-74
2022/10/11 06:03:46;;;;;;;3.63;2.03;;;6.00;55.30;;;;;;4981854;28;20030;-74
2022/10/11 06:06:11;;;;;;;7.47;2.80;;;6.00;55.40;;;;;;4993937;28;20093;-75
2022/10/11 06:08:41;;;;;;;5.47;2.03;;;6.00;55.40;;;;;;4994149;28;20034;-76
2022/10/11 06:11:15;;;;;;;5.38;2.35;;;6.00;55.40;;;;;;4985181;28;20030;-78
2022/10/11 06:13:43;;;;;;;7.20;3.28;;;6.00;55.50;;;;;;4986468;28;20034;-77
2022/10/11 06:16:11;;;;;;;5.78;2.28;;;5.90;55.30;;;;;;4986157;28;20037;-78
2022/10/11 06:18:37;;;;;;;5.07;2.63;;;6.00;55.50;;;;;;4984483;28;20040;-77
2022/10/11 06:21:05;;;;;;;5.35;2.42;;;6.00;55.50;;;;;;4981596;28;20049;-77
2022/10/11 06:23:31;;;;;;;6.57;2.20;;;5.90;55.30;;;;;;4977399;28;20421;-78
2022/10/11 06:26:04;;;;;;;12.07;2.70;;;5.90;55.30;;;;;;4986560;28;20045;-77
2022/10/11 06:28:31;;;;;;;6.25;2.28;;;5.90;55.40;;;;;;4985485;28;20026;-77
2022/10/11 06:30:59;;;;;;;8.13;2.78;;;5.90;55.30;;;;;;4985321;28;20042;-77
2022/10/11 06:33:25;;;;;;;8.40;2.85;;;5.90;55.40;;;;;;4991657;28;20049;-78
2022/10/11 06:36:12;;;;;;;8.73;2.95;;;5.90;55.90;;;;;;4989103;28;20030;-77
2022/10/11 06:38:38;;;;;;;8.82;3.63;;;6.10;56.90;;;;;;4989738;28;20042;-77
2022/10/11 06:41:11;;;;;;;5.55;3.20;;;6.40;57.40;;;;;;4990056;28;20042;-75
2022/10/11 06:43:37;;;;;;;7.25;2.83;;;6.70;58.20;;;;;;4986230;28;20520;-76
2022/10/11 06:46:02;;;;;;;12.20;3.00;;;7.00;58.50;;;;;;4987814;28;20042;-79
2022/10/11 06:48:30;;;;;;;9.55;3.55;;;7.20;58.80;;;;;;4984434;28;20043;-77
2022/10/11 06:50:59;;;;;;;8.15;2.40;;;7.50;59.20;;;;;;4982319;28;20030;-78
2022/10/11 06:53:26;;;;;;;6.88;2.92;;;7.80;59.60;;;;;;4991756;28;20043;-79
2022/10/11 06:55:53;;;;;;;10.10;2.53;;;8.10;59.90;;;;;;4973491;28;20037;-79
2022/10/11 06:58:20;;;;;;;6.65;2.88;;;8.40;60.10;;;;;;4990034;28;20036;-78
2022/10/11 07:00:47;;;;;;;6.78;2.33;;;8.60;60.10;;;;;;4989015;28;20065;-80
2022/10/11 07:03:12;;;;;;;7.95;3.00;;;8.80;60.20;;;;;;4983472;28;20046;-80
2022/10/11 07:05:38;;;;;;;4.43;2.00;;;9.00;60.30;;;;;;4991525;28;20077;-79
2022/10/11 07:08:05;;;;;;;5.53;2.58;;;9.20;60.40;;;;;;4990700;28;20057;-80
2022/10/11 07:10:31;;;;;;;10.82;3.05;;;9.40;60.50;;;;;;4990805;28;20034;-79
2022/10/11 07:12:56;;;;;;;6.57;2.50;;;9.60;60.70;;;;;;4983347;28;20066;-78
2022/10/11 07:15:22;;;;;;;6.88;2.88;;;9.80;60.90;;;;;;4987089;28;20146;-77
2022/10/11 07:17:49;;;;;;;5.60;2.00;;;9.90;60.90;;;;;;4985996;28;20104;-81
2022/10/11 07:20:15;;;;;;;6.32;2.67;;;10.10;61.10;;;;;;4996237;28;20045;-92
2022/10/11 07:22:40;;;;;;;8.30;2.85;;;10.20;61.00;;;;;;4996356;28;20031;-78
2022/10/11 07:25:07;;;;;;;10.40;2.10;;;10.30;61.00;;;;;;4999568;28;20101;-82
2022/10/11 07:27:34;;;;;;;7.78;2.30;;;10.50;61.20;;;;;;4997140;28;20038;-78
2022/10/11 07:30:00;;;;;;;5.38;2.40;;;10.60;61.10;;;;;;5002559;28;20094;-78
2022/10/11 07:32:26;;;;;;;9.98;2.65;;;10.80;61.20;;;;;;5003826;28;20038;-79
2022/10/11 07:34:51;;;;;;;4.30;1.90;;;10.80;60.90;;;;;;5004179;28;20030;-77
2022/10/11 07:37:17;;;;;;;5.53;2.00;;;11.00;61.10;;;;;;4984499;28;20030;-80
2022/10/11 07:39:43;;;;;;;6.03;2.60;;;11.10;61.00;;;;;;4996026;28;20436;-79
2022/10/11 07:42:09;;;;;;;7.70;2.20;;;11.10;60.70;;;;;;4994856;28;20121;-82
2022/10/11 07:44:35;;;;;;;6.38;1.80;;;11.20;60.70;;;;;;4990464;28;20041;-81
2022/10/11 07:47:01;;;;;;;6.40;1.95;;;11.30;60.70;;;;;;4992200;28;20053;-80
2022/10/11 07:49:27;;;;;;;7.70;2.42;;;11.40;60.70;;;;;;5001145;28;20049;-81
2022/10/11 07:51:54;;;;;;;5.97;2.13;;;11.40;60.50;;;;;;4992519;28;20038;-78
2022/10/11 07:54:20;;;;;;;7.88;2.78;;;11.50;60.50;;;;;;4991359;28;20022;-78
2022/10/11 07:56:46;;;;;;;8.68;2.50;;;11.60;60.50;;;;;;4971086;28;20097;-76
2022/10/11 07:59:12;;;;;;;8.57;1.95;;;11.70;60.50;;;;;;4992697;28;20030;-77
2022/10/11 08:01:38;;;;;;;8.82;2.70;;;11.70;60.40;;;;;;4991379;28;20313;-78
2022/10/11 08:04:07;;;;;;;6.88;3.10;;;11.70;60.10;;;;;;4987500;28;20530;-80
2022/10/11 08:06:33;;;;;;;4.22;2.53;;;11.80;60.20;;;;;;4990365;28;20026;-79
2022/10/11 08:08:59;;;;;;;6.47;2.05;;;11.90;60.10;;;;;;4979916;28;20034;-80
2022/10/11 08:11:28;;;;;;;7.25;1.98;;;11.90;60.00;;;;;;4986786;28;20085;-80
2022/10/11 08:13:59;;;;;;;;;;;12.00;60.10;;;;;;4991069;28;20038;-79
2022/10/11 08:16:25;;;;;;;9.88;2.47;;;12.10;60.10;;;;;;4992552;28;19914;-80
2022/10/11 08:18:55;;;;;;;6.88;2.35;;;12.20;60.00;;;;;;4976542;28;20053;-79
2022/10/11 08:21:21;;;;;;;4.72;2.33;;;12.30;60.00;;;;;;4959010;28;20050;-79
2022/10/11 08:23:50;;;;;;;5.13;2.20;;;12.30;59.80;;;;;;4998276;28;20045;-77
2022/10/11 08:26:16;;;;;;;7.70;2.83;;;12.40;59.90;;;;;;4990252;28;20064;-81
2022/10/11 08:28:42;;;;;;;7.45;3.03;;;12.50;59.80;;;;;;4977119;28;20486;-79
2022/10/11 08:31:13;;;;;;;6.10;2.38;;;12.50;59.70;;;;;;4988197;28;20040;-80
2022/10/11 08:33:39;;;;;;;6.55;3.17;;;12.60;59.70;;;;;;5002807;28;20030;-81
2022/10/11 08:36:06;;;;;;;8.13;3.17;;;12.70;59.80;;;;;;4974753;28;20026;-80
2022/10/11 08:38:35;;;;;;;7.60;3.85;;;12.80;59.80;;;;;;4984763;28;20039;-78
2022/10/11 08:41:01;;;;;;;7.40;3.22;;;12.80;59.70;;;;;;4951328;28;20047;-82
2022/10/11 08:43:48;;;;;;;7.53;2.20;;;12.90;59.80;;;;;;4989050;28;20130;-80
2022/10/11 08:46:15;;;;;;;10.63;2.78;;;13.00;59.90;;;;;;4989936;28;20045;-78
2022/10/11 08:48:46;;;;;;;10.02;2.95;;;13.10;59.90;;;;;;4982788;28;20051;-78
2022/10/11 08:51:44;;;;;;;6.72;3.03;;;13.10;59.80;;;;;;4984425;28;20038;-80
2022/10/11 08:54:41;;;;;;;7.82;3.17;;;13.20;59.80;;;;;;4984996;28;20034;-79
2022/10/11 08:57:15;;;;;;;11.27;3.22;;;13.20;59.60;;;;;;4987908;28;20486;-77
2022/10/11 08:59:49;;;;;;;9.13;3.03;;;13.10;59.40;;;;;;4988708;28;20037;-77
2022/10/11 09:02:45;;;;;;;11.70;4.38;;;13.10;59.50;;;;;;4988383;28;20042;-77
2022/10/11 09:05:17;;;;;;;12.18;3.45;;;13.00;59.40;;;;;;4988884;28;20053;-77
2022/10/11 09:08:08;;;;;;;9.10;3.10;;;12.90;59.40;;;;;;4988863;28;20041;-78
2022/10/11 09:10:45;;;;;;;11.13;2.90;;;12.90;59.60;;;;;;4984215;28;20399;-76
2022/10/11 09:13:18;;;;;;;9.75;2.63;;;12.90;59.70;;;;;;4989549;28;20045;-81
2022/10/11 09:15:45;;;;;;;;;;;12.90;59.80;;;;;;4991380;28;20030;-78
2022/10/11 09:18:47;;;;;;;7.35;3.38;;;12.90;59.80;;;;;;4988529;28;19914;-77
2022/10/11 09:21:26;;;;;;;8.23;2.63;;;12.90;59.80;;;;;;4976900;28;20693;-78
2022/10/11 09:24:22;;;;;;;16.23;6.68;;;13.00;60.00;;;;;;4983288;28;20085;-82
2022/10/11 09:26:53;;;;;;;10.70;3.33;;;13.10;60.10;;;;;;4989466;28;20039;-79
2022/10/11 09:29:58;;;;;;;11.63;3.38;;;13.20;60.00;;;;;;4984181;28;20028;-80
2022/10/11 09:32:33;;;;;;;11.68;2.88;;;13.30;59.90;;;;;;4980771;28;20045;-80
2022/10/11 09:35:10;;;;;;;14.98;3.60;;;13.30;59.80;;;;;;4990383;28;20022;-76
2022/10/11 09:37:45;;;;;;;9.50;3.30;;;13.30;59.70;;;;;;4989924;28;20038;-80
2022/10/11 09:40:11;;;;;;;10.77;4.18;;;13.40;59.80;;;;;;4987378;28;20049;-80
2022/10/11 09:42:37;;;;;;;10.80;3.92;;;13.50;60.00;;;;;;4990468;28;20026;-80
2022/10/11 09:45:17;;;;;;;11.45;2.80;;;13.60;60.20;;;;;;4981993;28;20047;-78
2022/10/11 09:47:44;;;;;;;8.70;3.28;;;13.80;60.40;;;;;;4981027;28;20042;-77
2022/10/11 09:50:24;;;;;;;13.30;3.28;;;14.00;60.40;;;;;;4996333;28;20486;-79
2022/10/11 09:52:58;;;;;;;13.10;4.38;;;14.10;60.20;;;;;;4986061;28;20029;-79
2022/10/11 09:55:52;;;;;;;8.77;2.97;;;14.30;60.10;;;;;;4980969;28;20030;-78
2022/10/11 09:58:37;;;;;;;6.72;3.05;;;14.40;60.00;;;;;;4980184;28;20041;-77
2022/10/11 10:01:10;;;;;;;9.43;3.00;;;14.50;59.80;;;;;;4987082;28;20463;-78
2022/10/11 10:03:45;;;;;;;13.35;4.07;;;14.60;59.80;;;;;;4981277;28;20023;-80
2022/10/11 10:06:20;;;;;;;10.98;3.00;;;14.60;59.50;;;;;;4989238;28;20097;-78
2022/10/11 10:08:49;;;;;;;8.68;3.42;;;14.60;59.30;;;;;;4989192;28;20026;-78
2022/10/11 10:11:16;;;;;;;10.10;3.05;;;14.60;59.80;;;;;;4998881;28;20328;-77
2022/10/11 10:13:50;;;;;;;13.07;3.55;;;14.60;59.10;;;;;;4991177;28;20036;-79
2022/10/11 10:16:28;;;;;;;12.30;2.92;;;14.70;59.10;;;;;;4991681;28;20094;-78
2022/10/11 10:19:16;;;;;;;9.57;2.90;;;14.70;59.00;;;;;;4985385;28;20039;-77
2022/10/11 10:21:48;;;;;;;7.85;2.53;;;14.70;58.90;;;;;;4983922;28;20057;-78
2022/10/11 10:24:26;;;;;;;11.73;2.65;;;14.80;58.90;;;;;;4999873;28;20030;-81
2022/10/11 10:27:10;;;;;;;9.90;2.72;;;14.90;59.00;;;;;;4986295;28;20082;-78
2022/10/11 10:29:37;;;;;;;11.13;2.15;;;15.00;58.90;;;;;;4993403;28;20034;-81
2022/10/11 10:32:21;;;;;;;12.88;4.28;;;15.00;58.70;;;;;;4990415;28;20026;-76
2022/10/11 10:35:10;;;;;;;7.65;2.03;;;15.10;58.50;;;;;;4990513;28;20406;-77
2022/10/11 10:37:58;;;;;;;8.45;2.90;;;15.20;58.50;;;;;;4989478;28;20023;-79
2022/10/11 10:40:49;;;;;;;8.32;2.28;;;15.30;58.40;;;;;;4988124;28;20041;-79
2022/10/11 10:43:18;;;;;;;14.38;2.90;;;15.50;58.50;;;;;;4988012;28;20030;-79
2022/10/11 10:46:10;;;;;;;10.13;2.97;;;15.60;58.30;;;;;;5002073;28;20045;-79
2022/10/11 10:48:48;;;;;;;7.97;2.70;;;15.70;58.10;;;;;;4974160;28;20111;-85
2022/10/11 10:51:36;;;;;;;10.50;2.33;;;15.80;58.00;;;;;;5001644;28;20189;-85
2022/10/11 10:54:19;;;;;;;6.38;2.35;;;15.90;57.90;;;;;;5000200;28;20074;-80
2022/10/11 10:56:53;;;;;;;9.20;2.72;;;16.00;57.70;;;;;;4984756;28;20118;-84
2022/10/11 10:59:40;;;;;;;8.60;1.90;;;16.10;57.60;;;;;;4991662;28;20469;-78
2022/10/11 11:02:28;;;;;;;8.80;2.33;;;16.20;57.40;;;;;;5017092;28;20109;-81
2022/10/11 11:05:06;;;;;;;8.77;2.25;;;16.30;57.20;;;;;;5000808;28;20034;-79
2022/10/11 11:07:50;;;;;;;7.95;2.33;;;16.40;57.10;;;;;;4993036;28;20049;-79
2022/10/11 11:10:22;;;;;;;9.40;2.65;;;16.50;56.90;;;;;;4994423;28;20037;-79
2022/10/11 11:13:03;;;;;;;6.65;2.33;;;16.70;57.20;;;;;;4990972;28;20138;-79
2022/10/11 11:15:35;;;;;;;6.68;2.28;;;16.70;56.80;;;;;;4980599;28;20061;-79
2022/10/11 11:18:03;;;;;;;7.63;2.47;;;16.80;56.80;;;;;;4991509;28;20034;-77
2022/10/11 11:20:38;;;;;;;7.28;2.00;;;16.90;56.60;;;;;;4995181;28;20116;-78
2022/10/11 11:23:13;;;;;;;5.72;1.55;;;16.90;56.40;;;;;;4990658;28;20090;-78
2022/10/11 11:26:07;;;;;;;8.57;1.80;;;17.00;56.40;;;;;;5010818;28;20046;-78
2022/10/11 11:28:36;;;;;;;9.00;2.05;;;17.10;56.20;;;;;;5007128;28;20030;-76
2022/10/11 11:31:28;;;;;;;6.55;2.15;;;17.10;56.10;;;;;;4997220;28;20015;-79
2022/10/11 11:34:03;;;;;;;10.65;2.55;;;17.20;55.70;;;;;;5012544;28;20027;-79
2022/10/11 11:36:38;;;;;;;13.00;3.45;;;17.20;55.70;;;;;;5001817;28;20093;-78
2022/10/11 11:39:09;;;;;;;8.25;2.70;;;17.30;55.60;;;;;;4985243;28;20098;-79
2022/10/11 11:41:57;;;;;;;7.88;2.05;;;17.30;55.40;;;;;;4996862;28;20124;-81
2022/10/11 11:44:37;;;;;;;10.65;2.78;;;17.30;54.80;;;;;;4982694;28;20099;-78
2022/10/11 11:47:21;;;;;;;6.00;2.42;;;17.30;54.60;;;;;;4974248;28;20038;-76
2022/10/11 11:50:13;;;;;;;10.50;3.55;;;17.40;54.60;;;;;;5017946;28;20101;-75
2022/10/11 11:52:43;;;;;;;12.88;3.28;;;17.30;54.50;;;;;;4995351;28;20093;-76
2022/10/11 11:55:32;;;;;;;18.40;4.95;;;17.30;54.60;;;;;;4988646;28;20162;-78
2022/10/11 11:58:25;;;;;;;10.77;3.72;;;17.30;54.70;;;;;;4985904;28;20128;-78
2022/10/11 12:01:03;;;;;;;11.30;4.38;;;17.40;55.10;;;;;;4985720;28;20318;-77
2022/10/11 12:03:43;;;;;;;10.10;2.77;;;17.50;55.40;;;;;;4980451;28;20027;-77
2022/10/11 12:06:13;;;;;;;11.18;2.97;;;17.70;55.60;;;;;;4994584;28;20042;-78
2022/10/11 12:08:42;;;;;;;9.00;2.63;;;17.80;55.40;;;;;;5008114;28;20026;-78
2022/10/11 12:11:24;;;;;;;8.98;2.45;;;18.00;55.30;;;;;;4980483;28;20030;-81
2022/10/11 12:13:52;;;;;;;7.17;2.23;;;18.20;55.10;;;;;;4998258;28;20111;-82
2022/10/11 12:16:22;;;;;;;4.82;1.80;;;18.40;55.20;;;;;;4996550;28;20102;-78
2022/10/11 12:18:49;;;;;;;11.98;3.13;;;18.60;55.20;;;;;;4962928;28;20118;-79
2022/10/11 12:21:34;;;;;;;8.15;3.25;;;18.70;54.90;;;;;;4998078;28;20046;-78
2022/10/11 12:24:08;;;;;;;8.23;2.55;;;18.90;54.80;;;;;;4961631;28;20041;-79
2022/10/11 12:26:45;;;;;;;6.25;2.05;;;19.10;54.60;;;;;;4995992;28;20461;-79
2022/10/11 12:29:16;;;;;;;8.45;2.92;;;19.20;54.60;;;;;;5015430;28;20033;-78
2022/10/11 12:32:02;;;;;;;10.23;2.60;;;19.40;54.70;;;;;;4992605;28;20038;-81
2022/10/11 12:34:40;;;;;;;11.48;2.95;;;19.40;54.20;;;;;;4984785;28;20589;-78
2022/10/11 12:37:18;;;;;;;7.78;3.13;;;19.60;53.90;;;;;;4984531;28;20035;-82
2022/10/11 12:39:53;;;;;;;9.45;3.08;;;19.60;53.20;;;;;;5004108;28;20486;-79
2022/10/11 12:42:31;;;;;;;9.80;2.75;;;19.70;53.20;;;;;;5000988;28;20057;-79
2022/10/11 12:45:12;;;;;;;7.30;2.95;;;19.70;52.90;;;;;;5002375;28;20014;-80
2022/10/11 12:48:33;;;;;;;7.95;2.58;;;19.90;52.90;;;;;;5001435;28;20136;-81
2022/10/11 12:51:05;;;;;;;7.72;2.92;;;20.00;52.30;;;;;;4981161;28;20106;-81
2022/10/11 12:53:46;;;;;;;6.25;2.30;;;20.10;53.20;;;;;;4994067;28;20357;-82
2022/10/11 12:56:34;;;;;;;7.40;3.42;;;20.20;52.40;;;;;;4995305;28;20042;-82
2022/10/11 12:59:03;;;;;;;10.13;4.10;;;20.40;52.20;;;;;;5001118;28;20085;-81
2022/10/11 13:01:46;;;;;;;7.10;2.97;;;20.50;52.00;;;;;;5026019;28;20042;-83
2022/10/11 13:04:14;;;;;;;;;;;20.70;51.70;;;;;;5004048;28;20031;-80
2022/10/11 13:06:52;;;;;;;9.35;2.47;;;20.70;51.90;;;;;;4985500;28;19917;-80
2022/10/11 13:09:27;;;;;;;8.10;3.42;;;20.80;51.90;;;;;;5007255;28;20049;-78
2022/10/11 13:12:03;;;;;;;8.40;2.72;;;20.80;51.30;;;;;;5000893;28;20185;-78
2022/10/11 13:14:40;;;;;;;8.98;2.55;;;20.90;51.30;;;;;;4999303;28;20098;-77
2022/10/11 13:17:29;;;;;;;8.55;3.00;;;21.00;50.80;;;;;;4999817;28;20059;-78
2022/10/11 13:20:17;;;;;;;6.88;2.85;;;21.10;50.40;;;;;;4996767;28;20124;-82